KNSE/NSE METAR and TAF weather

Enter ICAO airport designator
Station Type Date Time Source
KNSE METAR 2019/12/08 17:06 UTC NOAA

KNSE 081706Z AUTO 10006KT 10SM SCT023 OVC065 18/14 A3016 RMK AO2 T01830139 $


Station Type Date Time Source
KNSE Decoded METAR 2019/12/08 17:06 UTC NOAA

MILTON WHITING FIELD (NORTH), FL, United States (KNSE) 30-44N 87-01W 60M
Dec 08, 2019 - 12:06 PM EST / 2019.12.08 1706 UTC
Wind: from the E (100 degrees) at 7 MPH (6 KT):0
Visibility: 10 mile(s):0
Sky conditions: overcast
Temperature: 64.9 F (18.3 C)
Dew Point: 57.0 F (13.9 C)
Relative Humidity: 75%
Pressure (altimeter): 30.16 in. Hg (1021 hPa)
ob: KNSE 081706Z AUTO 10006KT 10SM SCT023 OVC065 18/14 A3016 RMK AO2 T01830139
cycle: 17

Station Type Date Time Source
KNSE TAF 2019/12/08 15:12 UTC NOAA

TAF KNSE 0815/0915 VRB06KT 9999 VCSH SCT030 QNH2999INS
TEMPO 0818/0900 6000 SHRA BR BKN030
BECMG 0900/0902 9999 NSW BKN030 QNH2998INS
BECMG 0904/0906 SCT030 QNH2995INS AUTOMATED SENSOR METWATCH 0815 TIL 0907 T20/0821Z T14/0914Z FN00205

Example: see airport list